createdAt,value
2023-05-19T00:02:06.765Z,7.5
2023-05-19T00:07:06.704Z,7.4
2023-05-19T00:12:06.704Z,7.4
2023-05-19T00:17:06.700Z,7.4
2023-05-19T00:22:06.724Z,7.4
2023-05-19T00:27:06.718Z,7.3
2023-05-19T00:32:06.837Z,7.3
2023-05-19T00:37:06.724Z,7.2
2023-05-19T00:42:06.714Z,7.2
2023-05-19T00:47:06.793Z,7.1
2023-05-19T00:52:06.742Z,7.1
2023-05-19T00:57:06.729Z,7.0
2023-05-19T01:02:06.780Z,7.0
2023-05-19T01:07:06.755Z,6.9
2023-05-19T01:12:06.742Z,6.9
2023-05-19T01:17:06.747Z,6.8
2023-05-19T01:22:06.759Z,6.8
2023-05-19T01:27:06.750Z,6.8
2023-05-19T01:32:06.920Z,6.8
2023-05-19T01:37:06.758Z,6.7
2023-05-19T01:42:06.764Z,6.7
2023-05-19T01:47:06.791Z,6.7
2023-05-19T01:52:06.763Z,6.7
2023-05-19T01:57:06.768Z,6.6
2023-05-19T02:02:06.836Z,6.6
2023-05-19T02:07:06.791Z,6.6
2023-05-19T02:12:06.781Z,6.6
2023-05-19T02:17:06.779Z,6.5
2023-05-19T02:22:06.790Z,6.5
2023-05-19T02:27:06.781Z,6.4
2023-05-19T02:32:06.863Z,6.4
2023-05-19T02:37:06.790Z,6.4
2023-05-19T02:42:06.789Z,6.5
2023-05-19T02:47:06.834Z,6.3
2023-05-19T02:52:06.801Z,6.3
2023-05-19T02:57:06.871Z,6.2
2023-05-19T03:02:06.956Z,6.3
2023-05-19T03:07:06.815Z,6.2
2023-05-19T03:12:06.809Z,6.3
2023-05-19T03:17:06.811Z,6.3
2023-05-19T03:22:06.815Z,6.3
2023-05-19T03:27:06.831Z,6.2
2023-05-19T03:32:06.994Z,6.2
2023-05-19T03:37:06.831Z,6.2
2023-05-19T03:42:06.835Z,6.3
2023-05-19T03:47:06.847Z,6.2
2023-05-19T03:52:06.826Z,6.2
2023-05-19T03:57:06.837Z,6.3
2023-05-19T04:02:08.256Z,6.3
2023-05-19T04:07:06.840Z,6.3
2023-05-19T04:12:06.852Z,6.4
2023-05-19T04:17:06.852Z,6.5
2023-05-19T04:22:06.848Z,6.6
2023-05-19T04:27:06.859Z,6.7
2023-05-19T04:32:06.912Z,6.8
2023-05-19T04:37:06.859Z,6.9
2023-05-19T04:42:06.870Z,7.1
2023-05-19T04:47:06.911Z,7.2
2023-05-19T04:52:06.863Z,7.3
2023-05-19T04:57:06.868Z,7.3
2023-05-19T05:02:07.079Z,7.3
2023-05-19T05:07:06.892Z,7.4
2023-05-19T05:12:06.884Z,7.5
2023-05-19T05:17:06.872Z,7.6
2023-05-19T05:22:06.884Z,7.7
2023-05-19T05:27:06.881Z,7.8
2023-05-19T05:32:06.932Z,7.8
2023-05-19T05:37:06.895Z,7.9
2023-05-19T05:42:06.889Z,7.8
2023-05-19T05:47:06.895Z,8.0
2023-05-19T05:52:07.099Z,8.0
2023-05-19T05:57:06.898Z,8.2
2023-05-19T06:02:06.991Z,8.4
2023-05-19T06:07:06.922Z,8.5
2023-05-19T06:12:06.913Z,8.7
2023-05-19T06:17:06.921Z,8.9
2023-05-19T06:22:06.928Z,9.1
2023-05-19T06:27:06.925Z,9.3
2023-05-19T06:32:07.070Z,9.5
2023-05-19T06:37:06.938Z,9.8
2023-05-19T06:42:06.933Z,9.9
2023-05-19T06:47:06.979Z,10.2
2023-05-19T06:52:06.939Z,10.6
2023-05-19T06:57:06.938Z,10.9
2023-05-19T07:02:07.066Z,11.1
2023-05-19T07:07:06.944Z,11.4
2023-05-19T07:12:06.988Z,11.7
2023-05-19T07:17:06.970Z,12.2
2023-05-19T07:22:06.963Z,12.2
2023-05-19T07:27:06.972Z,12.5
2023-05-19T07:32:07.029Z,12.9
2023-05-19T07:37:06.967Z,13.2
2023-05-19T07:42:06.964Z,13.4
2023-05-19T07:47:06.972Z,13.6
2023-05-19T07:52:06.978Z,14.1
2023-05-19T07:57:06.980Z,14.8
2023-05-19T08:02:07.029Z,15.5
2023-05-19T08:07:06.987Z,15.6
2023-05-19T08:12:06.976Z,15.9
2023-05-19T08:17:06.996Z,15.6
2023-05-19T08:22:06.988Z,16.2
2023-05-19T08:27:07.005Z,17.1
2023-05-19T08:32:07.050Z,17.4
2023-05-19T08:37:07.032Z,17.3
2023-05-19T08:42:07.009Z,17.0
2023-05-19T08:47:07.059Z,17.0
2023-05-19T08:52:07.010Z,17.8
2023-05-19T08:57:07.023Z,17.5
2023-05-19T09:02:07.053Z,17.7
2023-05-19T09:07:07.014Z,17.2
2023-05-19T09:12:07.026Z,17.2
2023-05-19T09:17:07.196Z,18.5
2023-05-19T09:22:07.027Z,18.5
2023-05-19T09:27:07.057Z,18.3
2023-05-19T09:32:07.102Z,18.6
2023-05-19T09:37:07.043Z,18.4
2023-05-19T09:42:07.044Z,18.6
2023-05-19T09:47:07.077Z,18.2
2023-05-19T09:52:07.052Z,17.8
2023-05-19T09:57:08.337Z,18.0
2023-05-19T10:02:07.082Z,17.9
2023-05-19T10:07:07.096Z,17.7
2023-05-19T10:12:07.136Z,17.5
2023-05-19T10:17:07.217Z,17.8
2023-05-19T10:22:07.061Z,17.5
2023-05-19T10:27:07.072Z,16.9
2023-05-19T10:32:07.187Z,17.5
2023-05-19T10:37:07.085Z,17.6
2023-05-19T10:42:07.124Z,17.4
2023-05-19T10:47:07.168Z,17.0
2023-05-19T10:52:07.087Z,17.3
2023-05-19T10:57:07.097Z,17.3
2023-05-19T11:02:07.109Z,17.4
2023-05-19T11:07:07.104Z,17.3
2023-05-19T11:12:07.127Z,17.6
2023-05-19T11:17:07.132Z,17.8
2023-05-19T11:22:07.107Z,17.4
2023-05-19T11:27:07.119Z,17.6
2023-05-19T11:32:07.171Z,17.9
2023-05-19T11:37:07.119Z,17.7
2023-05-19T11:42:07.150Z,17.8
2023-05-19T11:47:07.132Z,17.6
2023-05-19T11:52:07.200Z,18.0
2023-05-19T11:57:07.196Z,17.8
2023-05-19T12:02:07.203Z,17.8
2023-05-19T12:07:07.134Z,18.1
2023-05-19T12:12:07.171Z,18.0
2023-05-19T12:17:07.150Z,18.2
2023-05-19T12:22:07.137Z,18.3
2023-05-19T12:27:07.143Z,18.7
2023-05-19T12:32:07.246Z,18.7
2023-05-19T12:37:07.186Z,19.0
2023-05-19T12:42:07.184Z,18.4
2023-05-19T12:47:07.173Z,18.9
2023-05-19T12:52:11.905Z,19.2
2023-05-19T12:57:07.162Z,19.1
2023-05-19T13:02:07.322Z,19.0
2023-05-19T13:07:07.179Z,18.9
2023-05-19T13:12:07.272Z,19.5
2023-05-19T13:17:07.310Z,19.2
2023-05-19T13:22:07.183Z,19.0
2023-05-19T13:27:07.192Z,19.0
2023-05-19T13:32:07.312Z,19.2
2023-05-19T13:37:07.729Z,19.5
2023-05-19T13:42:07.223Z,19.3
2023-05-19T13:47:07.235Z,19.6
2023-05-19T13:52:07.206Z,19.5
2023-05-19T13:57:07.204Z,19.4
2023-05-19T14:02:07.255Z,19.2
2023-05-19T14:07:07.218Z,19.6
2023-05-19T14:12:07.253Z,19.8
2023-05-19T14:17:07.210Z,19.9
2023-05-19T14:22:07.222Z,19.6
2023-05-19T14:27:07.232Z,19.5
2023-05-19T14:32:07.311Z,19.8
2023-05-19T14:37:07.229Z,19.7
2023-05-19T14:42:07.257Z,19.7
2023-05-19T14:47:07.374Z,19.9
2023-05-19T14:52:07.233Z,20.0
2023-05-19T14:57:07.259Z,19.8
2023-05-19T15:02:07.263Z,19.5
2023-05-19T15:07:10.148Z,19.6
2023-05-19T15:12:07.272Z,19.9
2023-05-19T15:17:07.309Z,20.0
2023-05-19T15:22:07.257Z,19.9
2023-05-19T15:27:07.266Z,19.9
2023-05-19T15:32:07.283Z,19.9
2023-05-19T15:37:07.268Z,19.6
2023-05-19T15:42:07.294Z,19.4
2023-05-19T15:47:07.286Z,19.5
2023-05-19T15:52:07.285Z,19.7
2023-05-19T15:57:07.329Z,19.7
2023-05-19T16:02:07.390Z,19.7
2023-05-19T16:07:07.296Z,19.9
2023-05-19T16:12:07.320Z,20.0
2023-05-19T16:17:07.293Z,19.8
2023-05-19T16:22:07.313Z,19.5
2023-05-19T16:27:07.305Z,19.4
2023-05-19T16:32:07.427Z,19.0
2023-05-19T16:37:07.306Z,19.2
2023-05-19T16:42:07.337Z,19.2
2023-05-19T16:47:07.318Z,19.4
2023-05-19T16:52:07.323Z,19.4
2023-05-19T16:57:07.322Z,19.2
2023-05-19T17:02:07.424Z,18.9
2023-05-19T17:07:07.328Z,18.9
2023-05-19T17:12:07.422Z,18.7
2023-05-19T17:17:07.387Z,18.7
2023-05-19T17:22:07.326Z,18.7
2023-05-19T17:27:07.347Z,18.6
2023-05-19T17:32:07.417Z,18.4
2023-05-19T17:37:07.348Z,18.2
2023-05-19T17:42:07.372Z,18.0
2023-05-19T17:47:07.352Z,18.1
2023-05-19T17:52:07.352Z,18.1
2023-05-19T17:57:07.363Z,18.0
2023-05-19T18:02:07.508Z,18.0
2023-05-19T18:07:07.368Z,17.9
2023-05-19T18:12:07.386Z,17.8
2023-05-19T18:17:07.399Z,17.7
2023-05-19T18:22:07.376Z,17.6
2023-05-19T18:27:07.371Z,17.5
2023-05-19T18:32:07.527Z,17.4
2023-05-19T18:37:07.393Z,17.2
2023-05-19T18:42:07.421Z,17.1
2023-05-19T18:47:07.385Z,16.9
2023-05-19T18:52:07.392Z,16.6
2023-05-19T18:57:07.418Z,16.4
2023-05-19T19:02:07.428Z,16.3
2023-05-19T19:07:07.406Z,16.2
2023-05-19T19:12:07.433Z,16.1
2023-05-19T19:17:07.501Z,16.0
2023-05-19T19:22:07.408Z,15.9
2023-05-19T19:27:07.437Z,15.8
2023-05-19T19:32:07.500Z,15.7
2023-05-19T19:37:07.426Z,15.6
2023-05-19T19:42:07.454Z,15.4
2023-05-19T19:47:07.429Z,15.3
2023-05-19T19:52:07.448Z,15.1
2023-05-19T19:57:07.427Z,15.0
2023-05-19T20:02:07.497Z,14.8
2023-05-19T20:07:07.447Z,14.6
2023-05-19T20:12:07.464Z,14.6
2023-05-19T20:17:07.447Z,14.5
2023-05-19T20:22:07.452Z,14.4
2023-05-19T20:27:07.465Z,14.3
2023-05-19T20:36:09.008Z,14.3
2023-05-19T20:42:07.512Z,14.2
2023-05-19T20:47:07.474Z,14.1
2023-05-19T20:48:43.869Z,14.0
2023-05-19T20:53:08.339Z,13.9
2023-05-19T20:57:22.904Z,13.9
2023-05-19T20:57:37.847Z,13.9
2023-05-19T20:58:08.315Z,13.8
2023-05-19T21:03:08.389Z,13.7
2023-05-19T21:08:08.365Z,13.7
2023-05-19T21:13:08.405Z,13.6
2023-05-19T21:18:08.407Z,13.5
2023-05-19T21:23:08.346Z,13.5
2023-05-19T21:28:08.339Z,13.4
2023-05-19T21:33:08.374Z,13.3
2023-05-19T21:38:22.044Z,13.2
2023-05-19T21:43:08.440Z,13.1
2023-05-19T21:48:08.380Z,13.0
2023-05-19T21:53:08.361Z,13.0
2023-05-19T21:58:08.370Z,12.8
2023-05-19T22:03:08.445Z,12.7
2023-05-19T22:08:08.382Z,12.6
2023-05-19T22:13:08.467Z,12.6
2023-05-19T22:18:08.429Z,12.5
2023-05-19T22:23:08.385Z,12.4
2023-05-19T22:28:08.414Z,12.3
2023-05-19T22:33:08.515Z,12.2
2023-05-19T22:38:10.501Z,12.2
2023-05-19T22:43:08.420Z,12.1
2023-05-19T22:48:08.427Z,12.0
2023-05-19T22:53:08.384Z,11.9
2023-05-19T22:58:08.418Z,11.8
2023-05-19T23:03:08.434Z,11.7
2023-05-19T23:08:08.423Z,11.6
2023-05-19T23:13:08.453Z,11.5
2023-05-19T23:18:08.464Z,11.4
2023-05-19T23:23:08.414Z,11.3
2023-05-19T23:28:08.670Z,11.2
2023-05-19T23:33:08.484Z,11.1
2023-05-19T23:38:08.447Z,11.0
2023-05-19T23:43:08.481Z,10.9
2023-05-19T23:48:08.450Z,10.9
2023-05-19T23:53:08.434Z,10.8
2023-05-19T23:58:08.432Z,10.7
